createdAt,value
2022-11-27T00:02:19.511Z,7.00
2022-11-27T00:04:46.452Z,6.90
2022-11-27T00:07:13.491Z,6.90
2022-11-27T00:09:40.624Z,6.90
2022-11-27T00:12:08.050Z,6.90
2022-11-27T00:14:35.002Z,6.90
2022-11-27T00:17:01.940Z,6.90
2022-11-27T00:19:29.303Z,6.90
2022-11-27T00:21:56.194Z,6.90
2022-11-27T00:24:23.123Z,6.90
2022-11-27T00:26:50.056Z,6.90
2022-11-27T00:29:17.024Z,6.90
2022-11-27T00:31:44.096Z,6.90
2022-11-27T00:34:11.085Z,6.90
2022-11-27T00:36:38.034Z,6.90
2022-11-27T00:39:05.538Z,6.90
2022-11-27T00:41:32.432Z,6.90
2022-11-27T00:43:59.479Z,7.00
2022-11-27T00:46:28.968Z,6.90
2022-11-27T00:48:59.882Z,7.00
2022-11-27T00:51:27.015Z,7.00
2022-11-27T00:53:54.008Z,6.90
2022-11-27T00:56:24.539Z,6.90
2022-11-27T00:58:51.606Z,6.90
2022-11-27T01:01:19.875Z,6.90
2022-11-27T01:03:46.995Z,6.90
2022-11-27T01:06:14.200Z,6.90
2022-11-27T01:08:41.272Z,6.90
2022-11-27T01:11:08.375Z,6.90
2022-11-27T01:13:35.861Z,6.90
2022-11-27T01:16:02.876Z,6.90
2022-11-27T01:18:29.934Z,7.00
2022-11-27T01:20:56.886Z,7.00
2022-11-27T01:23:23.918Z,7.00
2022-11-27T01:25:53.108Z,6.90
2022-11-27T01:28:20.520Z,7.00
2022-11-27T01:30:47.573Z,7.00
2022-11-27T01:33:14.568Z,6.90
2022-11-27T01:35:41.456Z,7.00
2022-11-27T01:38:08.350Z,7.00
2022-11-27T01:40:35.307Z,7.00
2022-11-27T01:43:02.246Z,7.00
2022-11-27T01:45:29.207Z,7.00
2022-11-27T01:47:57.060Z,7.00
2022-11-27T01:50:25.386Z,7.00
2022-11-27T01:52:53.459Z,7.00
2022-11-27T01:55:32.766Z,7.00
2022-11-27T01:58:01.084Z,7.00
2022-11-27T02:00:28.068Z,7.10
2022-11-27T02:02:55.206Z,7.10
2022-11-27T02:05:23.548Z,7.10
2022-11-27T02:07:50.789Z,7.10
2022-11-27T02:10:17.673Z,7.10
2022-11-27T02:12:48.433Z,7.10
2022-11-27T02:15:21.580Z,7.00
2022-11-27T02:18:00.327Z,7.10
2022-11-27T02:20:33.126Z,7.00
2022-11-27T02:23:18.719Z,7.00
2022-11-27T02:25:48.570Z,7.00
2022-11-27T02:28:33.901Z,6.90
2022-11-27T02:31:06.181Z,7.00
2022-11-27T02:33:33.214Z,7.00
2022-11-27T02:36:01.699Z,6.90
2022-11-27T02:38:33.154Z,6.90
2022-11-27T02:41:07.889Z,6.90
2022-11-27T02:43:36.405Z,6.80
2022-11-27T02:46:03.865Z,6.80
2022-11-27T02:48:34.578Z,6.70
2022-11-27T02:51:03.237Z,6.70
2022-11-27T02:53:31.523Z,6.60
2022-11-27T02:55:58.459Z,6.60
2022-11-27T02:58:26.286Z,6.60
2022-11-27T03:00:53.275Z,6.50
2022-11-27T03:03:21.621Z,6.50
2022-11-27T03:05:49.495Z,6.40
2022-11-27T03:08:19.285Z,6.40
2022-11-27T03:10:48.119Z,6.40
2022-11-27T03:13:15.083Z,6.30
2022-11-27T03:15:45.744Z,6.30
2022-11-27T03:18:17.165Z,6.20
2022-11-27T03:20:44.109Z,6.20
2022-11-27T03:23:11.035Z,6.20
2022-11-27T03:25:37.986Z,6.20
2022-11-27T03:28:05.957Z,6.20
2022-11-27T03:30:32.903Z,6.20
2022-11-27T03:32:59.867Z,6.20
2022-11-27T03:35:26.999Z,6.10
2022-11-27T03:37:53.938Z,6.20
2022-11-27T03:40:20.991Z,6.20
2022-11-27T03:42:53.874Z,6.20
2022-11-27T03:45:30.136Z,6.10
2022-11-27T03:48:15.868Z,6.10
2022-11-27T03:51:01.199Z,6.10
2022-11-27T03:53:40.539Z,6.10
2022-11-27T03:56:13.631Z,6.00
2022-11-27T03:58:43.647Z,6.00
2022-11-27T04:01:11.453Z,6.10
2022-11-27T04:03:38.445Z,6.00
2022-11-27T04:06:05.467Z,6.10
2022-11-27T04:08:32.359Z,6.10
2022-11-27T04:10:59.297Z,6.00
2022-11-27T04:13:26.290Z,6.00
2022-11-27T04:15:53.242Z,6.00
2022-11-27T04:18:20.236Z,6.10
2022-11-27T04:20:47.284Z,6.10
2022-11-27T04:23:14.182Z,6.10
2022-11-27T04:25:41.072Z,6.10
2022-11-27T04:28:08.173Z,6.20
2022-11-27T04:30:35.349Z,6.20
2022-11-27T04:33:02.263Z,6.20
2022-11-27T04:35:29.183Z,6.20
2022-11-27T04:37:58.879Z,6.20
2022-11-27T04:40:25.921Z,6.20
2022-11-27T04:42:52.861Z,6.20
2022-11-27T04:45:19.863Z,6.10
2022-11-27T04:47:46.754Z,6.20
2022-11-27T04:50:13.703Z,6.20
2022-11-27T04:52:40.582Z,6.10
2022-11-27T04:55:07.802Z,6.10
2022-11-27T04:57:34.757Z,6.10
2022-11-27T05:00:01.910Z,6.10
2022-11-27T05:02:28.820Z,6.10
2022-11-27T05:04:55.807Z,6.10
2022-11-27T05:07:22.842Z,6.00
2022-11-27T05:09:49.798Z,6.10
2022-11-27T05:12:16.945Z,6.10
2022-11-27T05:14:43.881Z,6.10
2022-11-27T05:17:10.841Z,6.10
2022-11-27T05:19:37.776Z,6.10
2022-11-27T05:22:04.810Z,6.10
2022-11-27T05:24:31.775Z,6.10
2022-11-27T05:26:58.729Z,6.10
2022-11-27T05:29:25.989Z,6.10
2022-11-27T05:31:53.021Z,6.10
2022-11-27T05:34:20.054Z,6.10
2022-11-27T05:36:46.944Z,6.10
2022-11-27T05:39:14.265Z,6.10
2022-11-27T05:41:41.404Z,6.20
2022-11-27T05:44:09.498Z,6.20
2022-11-27T05:46:36.468Z,6.20
2022-11-27T05:49:03.480Z,6.20
2022-11-27T05:51:30.416Z,6.10
2022-11-27T05:53:57.543Z,6.20
2022-11-27T05:56:24.715Z,6.20
2022-11-27T05:58:52.102Z,6.20
2022-11-27T06:01:19.236Z,6.20
2022-11-27T06:03:46.749Z,6.20
2022-11-27T06:06:14.767Z,6.20
2022-11-27T06:08:41.740Z,6.20
2022-11-27T06:11:09.314Z,6.20
2022-11-27T06:13:36.285Z,6.20
2022-11-27T06:16:11.158Z,6.20
2022-11-27T06:18:38.075Z,6.20
2022-11-27T06:21:12.249Z,6.20
2022-11-27T06:23:39.342Z,6.20
2022-11-27T06:26:10.184Z,6.20
2022-11-27T06:28:37.146Z,6.20
2022-11-27T06:31:17.248Z,6.10
2022-11-27T06:33:45.235Z,6.10
2022-11-27T06:36:12.257Z,6.10
2022-11-27T06:38:39.393Z,6.10
2022-11-27T06:41:10.024Z,6.10
2022-11-27T06:43:37.031Z,6.10
2022-11-27T06:46:04.240Z,6.10
2022-11-27T06:48:31.382Z,6.00
2022-11-27T06:51:01.574Z,6.00
2022-11-27T06:53:29.031Z,5.90
2022-11-27T06:55:56.216Z,5.90
2022-11-27T06:58:27.752Z,5.90
2022-11-27T07:01:00.669Z,5.90
2022-11-27T07:03:27.700Z,5.90
2022-11-27T07:05:54.692Z,5.80
2022-11-27T07:08:22.412Z,5.80
2022-11-27T07:10:49.403Z,5.80
2022-11-27T07:13:16.404Z,5.80
2022-11-27T07:15:43.605Z,5.70
2022-11-27T07:18:10.757Z,5.70
2022-11-27T07:20:37.716Z,5.70
2022-11-27T07:23:04.559Z,5.60
2022-11-27T07:25:31.507Z,5.60
2022-11-27T07:27:58.551Z,5.60
2022-11-27T07:30:25.485Z,5.60
2022-11-27T07:32:52.420Z,5.60
2022-11-27T07:35:19.390Z,5.60
2022-11-27T07:37:46.382Z,5.50
2022-11-27T07:40:14.978Z,5.50
2022-11-27T07:42:42.060Z,5.50
2022-11-27T07:45:09.987Z,5.40
2022-11-27T07:47:37.277Z,5.40
2022-11-27T07:50:05.735Z,5.40
2022-11-27T07:52:39.512Z,5.50
2022-11-27T07:55:08.483Z,5.40
2022-11-27T07:57:35.440Z,5.50
2022-11-27T08:00:02.447Z,5.50
2022-11-27T08:02:31.317Z,5.50
2022-11-27T08:04:58.384Z,5.50
2022-11-27T08:07:29.004Z,5.60
2022-11-27T08:09:58.522Z,5.60
2022-11-27T08:12:25.676Z,5.60
2022-11-27T08:14:52.663Z,5.60
2022-11-27T08:17:19.562Z,5.60
2022-11-27T08:19:46.526Z,5.70
2022-11-27T08:22:13.901Z,5.70
2022-11-27T08:24:42.763Z,5.70
2022-11-27T08:27:10.153Z,5.80
2022-11-27T08:29:37.525Z,5.80
2022-11-27T08:32:04.937Z,5.80
2022-11-27T08:34:32.107Z,5.80
2022-11-27T08:36:59.041Z,5.90
2022-11-27T08:39:26.789Z,6.00
2022-11-27T08:41:54.068Z,6.00
2022-11-27T08:44:21.184Z,6.10
2022-11-27T08:46:48.133Z,6.20
2022-11-27T08:49:15.042Z,6.20
2022-11-27T08:51:41.942Z,6.30
2022-11-27T08:54:08.886Z,6.40
2022-11-27T08:56:36.291Z,6.50
2022-11-27T08:59:03.267Z,6.50
2022-11-27T09:01:30.693Z,6.60
2022-11-27T09:03:57.923Z,6.70
2022-11-27T09:06:26.082Z,6.80
2022-11-27T09:08:53.212Z,6.80
2022-11-27T09:11:20.222Z,6.90
2022-11-27T09:13:47.119Z,7.00
2022-11-27T09:16:14.862Z,7.10
2022-11-27T09:18:43.611Z,7.20
2022-11-27T09:21:10.964Z,7.30
2022-11-27T09:23:37.963Z,7.50
2022-11-27T09:26:06.497Z,7.60
2022-11-27T09:28:33.545Z,7.70
2022-11-27T09:31:02.007Z,7.90
2022-11-27T09:33:29.463Z,8.10
2022-11-27T09:35:56.469Z,8.30
2022-11-27T09:38:26.285Z,8.40
2022-11-27T09:40:53.876Z,8.60
2022-11-27T09:43:23.348Z,8.70
2022-11-27T09:45:51.446Z,8.90
2022-11-27T09:48:19.291Z,9.00
2022-11-27T09:50:50.541Z,9.20
2022-11-27T09:53:20.276Z,9.20
2022-11-27T09:55:48.747Z,9.40
2022-11-27T09:58:18.577Z,9.50
2022-11-27T10:00:45.926Z,9.60
2022-11-27T10:03:17.143Z,9.80
2022-11-27T10:06:03.129Z,9.90
2022-11-27T10:08:33.042Z,10.00
2022-11-27T10:11:05.935Z,10.10
2022-11-27T10:13:32.975Z,10.20
2022-11-27T10:16:20.209Z,10.40
2022-11-27T10:18:51.920Z,10.40
2022-11-27T10:21:31.709Z,10.60
2022-11-27T10:24:02.791Z,10.70
2022-11-27T10:26:32.783Z,10.80
2022-11-27T10:28:59.710Z,11.00
2022-11-27T10:31:29.746Z,11.20
2022-11-27T10:33:57.810Z,11.40
2022-11-27T10:36:29.202Z,11.50
2022-11-27T10:38:56.100Z,11.70
2022-11-27T10:44:18.959Z,11.90
2022-11-27T10:46:45.911Z,12.00
2022-11-27T10:49:12.849Z,12.20
2022-11-27T10:51:39.730Z,12.30
2022-11-27T10:54:07.111Z,12.60
2022-11-27T10:56:52.842Z,13.10
2022-11-27T10:59:19.911Z,14.00
2022-11-27T11:01:47.904Z,15.50
2022-11-27T11:04:36.511Z,16.70
2022-11-27T11:07:02.548Z,17.80
2022-11-27T11:09:32.866Z,18.60
2022-11-27T11:12:09.358Z,19.30
2022-11-27T11:14:36.381Z,19.80
2022-11-27T11:17:14.593Z,20.20
2022-11-27T11:19:42.718Z,20.60
2022-11-27T11:22:14.623Z,21.00
2022-11-27T11:24:45.054Z,21.40
2022-11-27T11:27:21.626Z,21.90
2022-11-27T11:29:59.362Z,22.30
2022-11-27T11:32:29.998Z,22.70
2022-11-27T11:35:01.203Z,23.10
2022-11-27T11:37:35.166Z,23.30
2022-11-27T11:40:22.339Z,23.50
2022-11-27T11:42:57.364Z,23.60
2022-11-27T11:45:28.540Z,23.90
2022-11-27T11:47:57.812Z,24.00
2022-11-27T11:50:28.953Z,24.30
2022-11-27T11:52:55.910Z,24.50
2022-11-27T11:55:25.260Z,24.60
2022-11-27T11:58:02.733Z,24.90
2022-11-27T12:00:52.865Z,25.00
2022-11-27T12:03:24.434Z,25.00
2022-11-27T12:06:13.361Z,25.00
2022-11-27T12:08:42.495Z,25.00
2022-11-27T12:11:28.243Z,25.00
2022-11-27T12:13:55.230Z,25.00
2022-11-27T12:16:41.102Z,25.10
2022-11-27T12:19:27.062Z,25.00
2022-11-27T12:22:06.261Z,24.60
2022-11-27T12:25:08.769Z,23.20
2022-11-27T12:27:38.635Z,21.30
2022-11-27T12:30:06.707Z,19.40
2022-11-27T12:32:39.491Z,18.20
2022-11-27T12:35:24.302Z,17.40
2022-11-27T12:38:17.163Z,16.70
2022-11-27T12:41:02.701Z,16.40
2022-11-27T12:43:35.059Z,16.50
2022-11-27T12:46:20.736Z,17.20
2022-11-27T12:48:55.880Z,18.40
2022-11-27T12:51:24.873Z,19.60
2022-11-27T12:53:51.778Z,20.50
2022-11-27T12:56:36.999Z,21.10
2022-11-27T12:59:10.236Z,21.10
2022-11-27T13:01:39.853Z,21.10
2022-11-27T13:04:26.659Z,21.10
2022-11-27T13:06:53.654Z,21.10
2022-11-27T13:09:30.901Z,20.30
2022-11-27T13:11:57.890Z,19.10
2022-11-27T13:14:25.387Z,17.80
2022-11-27T13:17:03.115Z,16.60
2022-11-27T13:19:33.984Z,15.70
2022-11-27T13:22:01.184Z,14.90
2022-11-27T13:24:28.491Z,14.30
2022-11-27T13:27:09.767Z,13.90
2022-11-27T13:29:39.790Z,13.60
2022-11-27T13:32:06.753Z,13.40
2022-11-27T13:34:34.088Z,13.20
2022-11-27T13:37:01.850Z,13.00
2022-11-27T13:39:29.777Z,12.90
2022-11-27T13:42:04.136Z,12.80
2022-11-27T13:44:31.137Z,12.70
2022-11-27T13:47:05.141Z,12.50
2022-11-27T13:49:32.859Z,12.40
2022-11-27T13:52:16.327Z,12.20
2022-11-27T13:54:56.265Z,12.00
2022-11-27T13:57:23.395Z,11.80
2022-11-27T14:00:00.437Z,11.60
2022-11-27T14:02:43.678Z,11.40
2022-11-27T14:05:11.368Z,11.20
2022-11-27T14:07:41.349Z,11.00
2022-11-27T14:10:18.370Z,10.80
2022-11-27T14:13:03.660Z,10.60
2022-11-27T14:15:31.206Z,10.40
2022-11-27T14:18:10.286Z,10.30
2022-11-27T14:20:38.322Z,10.20
2022-11-27T14:23:12.267Z,10.00
2022-11-27T14:25:40.034Z,9.90
2022-11-27T14:28:11.348Z,9.80
2022-11-27T14:30:43.616Z,9.60
2022-11-27T14:33:31.264Z,9.50
2022-11-27T14:35:59.351Z,9.40
2022-11-27T14:38:27.081Z,9.30
2022-11-27T14:40:54.997Z,9.20
2022-11-27T14:43:26.305Z,9.10
2022-11-27T14:45:54.150Z,9.10
2022-11-27T14:48:22.289Z,9.00
2022-11-27T14:50:49.348Z,8.90
2022-11-27T14:53:16.620Z,8.80
2022-11-27T14:55:43.570Z,8.70
2022-11-27T14:58:14.765Z,8.60
2022-11-27T15:00:49.415Z,8.50
2022-11-27T15:03:16.461Z,8.50
2022-11-27T15:05:49.779Z,8.40
2022-11-27T15:08:16.820Z,8.30
2022-11-27T15:10:43.736Z,8.20
2022-11-27T15:13:29.587Z,8.10
2022-11-27T15:15:56.666Z,8.10
2022-11-27T15:18:23.670Z,8.10
2022-11-27T15:20:50.629Z,8.10
2022-11-27T15:23:26.716Z,8.00
2022-11-27T15:25:59.483Z,7.90
2022-11-27T15:28:32.641Z,7.80
2022-11-27T15:30:59.687Z,7.70
2022-11-27T15:33:30.431Z,7.70
2022-11-27T15:36:15.965Z,7.70
2022-11-27T15:38:43.325Z,7.60
2022-11-27T15:41:22.592Z,7.50
2022-11-27T15:43:49.538Z,7.40
2022-11-27T15:46:16.637Z,7.40
2022-11-27T15:48:43.631Z,7.30
2022-11-27T15:51:10.697Z,7.30
2022-11-27T15:53:37.649Z,7.20
2022-11-27T15:56:04.778Z,7.20
2022-11-27T15:58:31.722Z,7.00
2022-11-27T16:00:58.726Z,6.90
2022-11-27T16:03:25.728Z,6.90
2022-11-27T16:05:52.611Z,6.80
2022-11-27T16:08:19.509Z,6.70
2022-11-27T16:10:47.018Z,6.70
2022-11-27T16:13:13.951Z,6.60
2022-11-27T16:15:40.920Z,6.50
2022-11-27T16:18:07.802Z,6.50
2022-11-27T16:20:35.052Z,6.40
2022-11-27T16:23:02.105Z,6.30
2022-11-27T16:25:29.046Z,6.30
2022-11-27T16:28:02.213Z,6.30
2022-11-27T16:30:29.819Z,6.20
2022-11-27T16:32:56.954Z,6.20
2022-11-27T16:35:24.433Z,6.20
2022-11-27T16:37:51.866Z,6.20
2022-11-27T16:40:19.852Z,6.20
2022-11-27T16:42:46.885Z,6.20
2022-11-27T16:45:13.845Z,6.20
2022-11-27T16:47:40.792Z,6.20
2022-11-27T16:50:09.869Z,6.20
2022-11-27T16:52:36.918Z,6.20
2022-11-27T16:55:04.009Z,6.20
2022-11-27T16:57:31.424Z,6.20
2022-11-27T16:59:58.394Z,6.10
2022-11-27T17:02:28.854Z,6.10
2022-11-27T17:04:56.175Z,6.10
2022-11-27T17:07:23.159Z,6.10
2022-11-27T17:09:50.265Z,6.10
2022-11-27T17:12:17.194Z,6.00
2022-11-27T17:14:44.145Z,6.00
2022-11-27T17:17:11.042Z,6.00
2022-11-27T17:19:38.266Z,5.90
2022-11-27T17:22:05.350Z,5.90
2022-11-27T17:24:38.121Z,5.90
2022-11-27T17:27:06.712Z,5.90
2022-11-27T17:29:35.699Z,5.90
2022-11-27T17:32:03.556Z,5.90
2022-11-27T17:34:30.603Z,5.80
2022-11-27T17:36:58.755Z,5.80
2022-11-27T17:39:26.608Z,5.80
2022-11-27T17:41:53.643Z,5.70
2022-11-27T17:44:20.593Z,5.70
2022-11-27T17:46:50.155Z,5.70
2022-11-27T17:49:19.620Z,5.60
2022-11-27T17:51:47.861Z,5.60
2022-11-27T17:54:14.950Z,5.60
2022-11-27T17:56:42.409Z,5.60
2022-11-27T17:59:10.113Z,5.50
2022-11-27T18:01:37.368Z,5.50
2022-11-27T18:04:05.531Z,5.40
2022-11-27T18:06:32.630Z,5.40
2022-11-27T18:08:59.773Z,5.30
2022-11-27T18:11:27.994Z,5.30
2022-11-27T18:13:57.405Z,5.30
2022-11-27T18:16:29.300Z,5.30
2022-11-27T18:18:56.914Z,5.20
2022-11-27T18:21:27.054Z,5.20
2022-11-27T18:24:22.051Z,5.20
2022-11-27T18:29:28.010Z,5.10
2022-11-27T18:31:55.004Z,5.10
2022-11-27T18:34:21.989Z,5.00
2022-11-27T18:36:48.922Z,5.10
2022-11-27T18:39:15.928Z,5.10
2022-11-27T18:41:42.908Z,5.00
2022-11-27T18:44:09.954Z,5.00
2022-11-27T18:46:38.445Z,5.00
2022-11-27T18:49:05.617Z,5.00
2022-11-27T18:51:32.741Z,5.00
2022-11-27T18:53:59.733Z,4.90
2022-11-27T18:56:27.761Z,4.90
2022-11-27T18:58:55.012Z,4.90
2022-11-27T19:01:23.367Z,4.90
2022-11-27T19:03:50.539Z,4.90
2022-11-27T19:06:18.111Z,4.90
2022-11-27T19:08:45.172Z,4.90
2022-11-27T19:11:13.199Z,4.80
2022-11-27T19:13:40.395Z,4.80
2022-11-27T19:16:08.155Z,4.80
2022-11-27T19:18:36.555Z,4.70
2022-11-27T19:21:16.057Z,4.70
2022-11-27T19:23:43.415Z,4.70
2022-11-27T19:26:11.137Z,4.70
2022-11-27T19:28:38.325Z,4.70
2022-11-27T19:31:06.007Z,4.70
2022-11-27T19:33:33.552Z,4.70
2022-11-27T19:36:01.314Z,4.60
2022-11-27T19:38:28.292Z,4.60
2022-11-27T19:40:55.302Z,4.60
2022-11-27T19:43:23.585Z,4.60
2022-11-27T19:45:50.599Z,4.60
2022-11-27T19:48:22.896Z,4.50
2022-11-27T19:50:51.796Z,4.50
2022-11-27T19:53:19.396Z,4.50
2022-11-27T19:55:52.795Z,4.50
2022-11-27T19:58:19.710Z,4.50
2022-11-27T20:00:47.243Z,4.50
2022-11-27T20:03:14.205Z,4.50
2022-11-27T20:05:41.168Z,4.40
2022-11-27T20:08:08.148Z,4.50
2022-11-27T20:10:35.135Z,4.40
2022-11-27T20:13:02.247Z,4.40
2022-11-27T20:15:29.364Z,4.40
2022-11-27T20:17:57.043Z,4.30
2022-11-27T20:20:24.563Z,4.30
2022-11-27T20:22:52.528Z,4.30
2022-11-27T20:25:20.579Z,4.30
2022-11-27T20:27:49.064Z,4.30
2022-11-27T20:30:16.042Z,4.30
2022-11-27T20:32:42.960Z,4.20
2022-11-27T20:35:09.921Z,4.20
2022-11-27T20:37:38.016Z,4.20
2022-11-27T20:40:05.350Z,4.20
2022-11-27T20:42:32.822Z,4.20
2022-11-27T20:45:04.990Z,4.10
2022-11-27T20:47:32.944Z,4.20
2022-11-27T20:50:00.002Z,4.10
2022-11-27T20:52:27.369Z,4.10
2022-11-27T20:54:55.239Z,4.10
2022-11-27T20:57:22.732Z,4.10
2022-11-27T20:59:49.634Z,4.10
2022-11-27T21:02:16.629Z,4.10
2022-11-27T21:04:43.717Z,4.10
2022-11-27T21:07:11.071Z,4.10
2022-11-27T21:09:38.229Z,4.10
2022-11-27T21:12:06.402Z,4.20
2022-11-27T21:14:33.349Z,4.20
2022-11-27T21:17:04.819Z,4.20
2022-11-27T21:19:32.786Z,4.20
2022-11-27T21:21:59.769Z,4.20
2022-11-27T21:24:28.632Z,4.20
2022-11-27T21:26:56.015Z,4.20
2022-11-27T21:29:25.559Z,4.20
2022-11-27T21:31:54.054Z,4.20
2022-11-27T21:34:21.211Z,4.20
2022-11-27T21:36:48.968Z,4.30
2022-11-27T21:39:20.601Z,4.30
2022-11-27T21:41:51.907Z,4.30
2022-11-27T21:44:19.734Z,4.30
2022-11-27T21:46:46.778Z,4.30
2022-11-27T21:49:14.595Z,4.30
2022-11-27T21:51:41.512Z,4.30
2022-11-27T21:54:09.389Z,4.30
2022-11-27T21:56:38.488Z,4.30
2022-11-27T21:59:09.486Z,4.30
2022-11-27T22:01:36.492Z,4.30
2022-11-27T22:04:03.583Z,4.30
2022-11-27T22:06:31.087Z,4.30
2022-11-27T22:08:58.523Z,4.30
2022-11-27T22:11:30.389Z,4.30
2022-11-27T22:13:58.477Z,4.30
2022-11-27T22:16:26.232Z,4.30
2022-11-27T22:18:54.212Z,4.30
2022-11-27T22:21:21.228Z,4.30
2022-11-27T22:23:48.612Z,4.30
2022-11-27T22:26:16.454Z,4.30
2022-11-27T22:28:43.467Z,4.30
2022-11-27T22:31:14.465Z,4.30
2022-11-27T22:33:41.677Z,4.30
2022-11-27T22:36:11.912Z,4.30
2022-11-27T22:38:39.108Z,4.30
2022-11-27T22:41:06.098Z,4.30
2022-11-27T22:43:36.066Z,4.30
2022-11-27T22:46:29.189Z,4.30
2022-11-27T22:48:58.213Z,4.30
2022-11-27T22:51:25.623Z,4.20
2022-11-27T22:53:52.750Z,4.20
2022-11-27T22:56:19.831Z,4.20
2022-11-27T22:58:47.749Z,4.20
2022-11-27T23:01:15.974Z,4.20
2022-11-27T23:03:43.097Z,4.20
2022-11-27T23:06:12.168Z,4.10
2022-11-27T23:08:42.229Z,4.10
2022-11-27T23:11:09.648Z,4.10
2022-11-27T23:13:36.739Z,4.20
2022-11-27T23:16:04.195Z,4.10
2022-11-27T23:18:31.653Z,4.10
2022-11-27T23:20:58.596Z,4.20
2022-11-27T23:23:25.545Z,4.10
2022-11-27T23:25:52.485Z,4.10
2022-11-27T23:28:19.372Z,4.10
2022-11-27T23:30:46.384Z,4.10
2022-11-27T23:33:13.426Z,4.00
2022-11-27T23:35:40.457Z,4.00
2022-11-27T23:38:07.506Z,4.00
2022-11-27T23:40:34.677Z,4.00
2022-11-27T23:43:01.682Z,3.90
2022-11-27T23:45:28.631Z,3.80
2022-11-27T23:47:55.618Z,3.80
2022-11-27T23:50:22.746Z,3.80
2022-11-27T23:52:52.174Z,3.80
2022-11-27T23:55:19.212Z,3.70
2022-11-27T23:57:46.160Z,3.70
